sensor_id;sensor_type;location;lat;lon;timestamp;P1;durP1;ratioP1;P2;durP2;ratioP2
21233;SDS011;10774;42.178;26.578;2022-09-02T00:00:55;11.75;;;6.75;;
21233;SDS011;10774;42.178;26.578;2022-09-02T00:03:25;10.63;;;6.80;;
21233;SDS011;10774;42.178;26.578;2022-09-02T00:05:51;13.55;;;6.78;;
21233;SDS011;10774;42.178;26.578;2022-09-02T00:08:16;11.35;;;7.15;;
21233;SDS011;10774;42.178;26.578;2022-09-02T00:10:43;13.40;;;7.13;;
21233;SDS011;10774;42.178;26.578;2022-09-02T00:13:09;11.65;;;6.60;;
21233;SDS011;10774;42.178;26.578;2022-09-02T00:15:37;11.63;;;6.78;;
21233;SDS011;10774;42.178;26.578;2022-09-02T00:18:03;10.05;;;6.25;;
21233;SDS011;10774;42.178;26.578;2022-09-02T00:20:31;12.07;;;6.82;;
21233;SDS011;10774;42.178;26.578;2022-09-02T00:22:57;9.13;;;6.32;;
21233;SDS011;10774;42.178;26.578;2022-09-02T00:25:23;10.10;;;7.18;;
21233;SDS011;10774;42.178;26.578;2022-09-02T00:27:50;10.65;;;6.47;;
21233;SDS011;10774;42.178;26.578;2022-09-02T00:30:15;8.05;;;6.07;;
21233;SDS011;10774;42.178;26.578;2022-09-02T00:32:41;11.70;;;6.82;;
21233;SDS011;10774;42.178;26.578;2022-09-02T00:35:07;7.85;;;5.88;;
21233;SDS011;10774;42.178;26.578;2022-09-02T00:37:33;11.20;;;6.47;;
21233;SDS011;10774;42.178;26.578;2022-09-02T00:39:59;11.52;;;6.50;;
21233;SDS011;10774;42.178;26.578;2022-09-02T00:42:25;7.20;;;5.72;;
21233;SDS011;10774;42.178;26.578;2022-09-02T00:44:51;11.75;;;6.78;;
21233;SDS011;10774;42.178;26.578;2022-09-02T00:47:17;9.50;;;6.22;;
21233;SDS011;10774;42.178;26.578;2022-09-02T00:49:44;13.45;;;6.38;;
21233;SDS011;10774;42.178;26.578;2022-09-02T00:54:51;12.90;;;6.75;;
21233;SDS011;10774;42.178;26.578;2022-09-02T00:57:21;11.70;;;6.70;;
21233;SDS011;10774;42.178;26.578;2022-09-02T01:00:06;11.93;;;6.40;;
21233;SDS011;10774;42.178;26.578;2022-09-02T01:02:32;12.40;;;6.70;;
21233;SDS011;10774;42.178;26.578;2022-09-02T01:04:58;12.35;;;6.53;;
21233;SDS011;10774;42.178;26.578;2022-09-02T01:07:25;13.15;;;7.18;;
21233;SDS011;10774;42.178;26.578;2022-09-02T01:09:54;10.05;;;6.90;;
21233;SDS011;10774;42.178;26.578;2022-09-02T01:12:22;9.30;;;6.95;;
21233;SDS011;10774;42.178;26.578;2022-09-02T01:14:48;13.20;;;7.30;;
21233;SDS011;10774;42.178;26.578;2022-09-02T01:17:14;10.88;;;6.70;;
21233;SDS011;10774;42.178;26.578;2022-09-02T01:19:45;13.85;;;6.95;;
21233;SDS011;10774;42.178;26.578;2022-09-02T01:22:32;9.85;;;7.07;;
21233;SDS011;10774;42.178;26.578;2022-09-02T01:25:03;10.43;;;7.05;;
21233;SDS011;10774;42.178;26.578;2022-09-02T01:27:31;10.13;;;7.05;;
21233;SDS011;10774;42.178;26.578;2022-09-02T01:29:58;9.65;;;7.15;;
21233;SDS011;10774;42.178;26.578;2022-09-02T01:32:25;10.15;;;7.45;;
21233;SDS011;10774;42.178;26.578;2022-09-02T01:34:53;10.45;;;6.80;;
21233;SDS011;10774;42.178;26.578;2022-09-02T01:37:19;10.50;;;7.20;;
21233;SDS011;10774;42.178;26.578;2022-09-02T01:39:46;9.10;;;6.85;;
21233;SDS011;10774;42.178;26.578;2022-09-02T01:42:12;10.00;;;6.60;;
21233;SDS011;10774;42.178;26.578;2022-09-02T01:44:38;10.88;;;7.00;;
21233;SDS011;10774;42.178;26.578;2022-09-02T01:47:15;14.00;;;7.00;;
21233;SDS011;10774;42.178;26.578;2022-09-02T01:49:45;13.60;;;7.18;;
21233;SDS011;10774;42.178;26.578;2022-09-02T01:52:10;9.82;;;7.20;;
21233;SDS011;10774;42.178;26.578;2022-09-02T01:54:36;10.02;;;7.38;;
21233;SDS011;10774;42.178;26.578;2022-09-02T01:57:03;8.98;;;6.88;;
21233;SDS011;10774;42.178;26.578;2022-09-02T01:59:29;9.13;;;6.97;;
21233;SDS011;10774;42.178;26.578;2022-09-02T02:01:54;11.35;;;7.32;;
21233;SDS011;10774;42.178;26.578;2022-09-02T02:04:20;11.80;;;6.75;;
21233;SDS011;10774;42.178;26.578;2022-09-02T02:06:49;9.70;;;7.32;;
21233;SDS011;10774;42.178;26.578;2022-09-02T02:09:15;20.63;;;8.00;;
21233;SDS011;10774;42.178;26.578;2022-09-02T02:11:41;13.27;;;6.70;;
21233;SDS011;10774;42.178;26.578;2022-09-02T02:14:07;10.40;;;7.47;;
21233;SDS011;10774;42.178;26.578;2022-09-02T02:16:33;11.20;;;6.88;;
21233;SDS011;10774;42.178;26.578;2022-09-02T02:18:58;9.07;;;6.45;;
21233;SDS011;10774;42.178;26.578;2022-09-02T02:21:24;13.23;;;6.93;;
21233;SDS011;10774;42.178;26.578;2022-09-02T02:23:50;12.52;;;6.80;;
21233;SDS011;10774;42.178;26.578;2022-09-02T02:26:15;13.57;;;7.28;;
21233;SDS011;10774;42.178;26.578;2022-09-02T02:28:41;13.23;;;7.80;;
21233;SDS011;10774;42.178;26.578;2022-09-02T02:31:07;9.35;;;6.70;;
21233;SDS011;10774;42.178;26.578;2022-09-02T02:33:33;11.77;;;7.20;;
21233;SDS011;10774;42.178;26.578;2022-09-02T02:35:59;10.95;;;7.10;;
21233;SDS011;10774;42.178;26.578;2022-09-02T02:38:25;11.95;;;7.38;;
21233;SDS011;10774;42.178;26.578;2022-09-02T02:40:54;9.10;;;6.13;;
21233;SDS011;10774;42.178;26.578;2022-09-02T02:43:21;9.48;;;7.15;;
21233;SDS011;10774;42.178;26.578;2022-09-02T02:45:50;13.90;;;7.57;;
21233;SDS011;10774;42.178;26.578;2022-09-02T02:48:16;10.10;;;6.97;;
21233;SDS011;10774;42.178;26.578;2022-09-02T02:50:42;11.45;;;8.23;;
21233;SDS011;10774;42.178;26.578;2022-09-02T02:53:07;13.27;;;7.72;;
21233;SDS011;10774;42.178;26.578;2022-09-02T02:55:33;11.75;;;8.50;;
21233;SDS011;10774;42.178;26.578;2022-09-02T02:57:59;12.55;;;7.88;;
21233;SDS011;10774;42.178;26.578;2022-09-02T03:00:27;11.20;;;7.70;;
21233;SDS011;10774;42.178;26.578;2022-09-02T03:02:55;10.82;;;7.30;;
21233;SDS011;10774;42.178;26.578;2022-09-02T03:05:26;14.50;;;7.55;;
21233;SDS011;10774;42.178;26.578;2022-09-02T03:07:52;13.32;;;7.47;;
21233;SDS011;10774;42.178;26.578;2022-09-02T03:10:18;14.23;;;8.05;;
21233;SDS011;10774;42.178;26.578;2022-09-02T03:12:44;11.98;;;7.57;;
21233;SDS011;10774;42.178;26.578;2022-09-02T03:15:12;10.77;;;6.97;;
21233;SDS011;10774;42.178;26.578;2022-09-02T03:17:41;11.38;;;7.38;;
21233;SDS011;10774;42.178;26.578;2022-09-02T03:20:10;11.98;;;6.68;;
21233;SDS011;10774;42.178;26.578;2022-09-02T03:22:36;10.57;;;7.10;;
21233;SDS011;10774;42.178;26.578;2022-09-02T03:25:06;9.10;;;6.95;;
21233;SDS011;10774;42.178;26.578;2022-09-02T03:27:35;7.68;;;6.55;;
21233;SDS011;10774;42.178;26.578;2022-09-02T03:30:02;9.95;;;7.00;;
21233;SDS011;10774;42.178;26.578;2022-09-02T03:32:30;8.23;;;6.78;;
21233;SDS011;10774;42.178;26.578;2022-09-02T03:34:55;9.07;;;7.28;;
21233;SDS011;10774;42.178;26.578;2022-09-02T03:37:20;10.85;;;7.63;;
21233;SDS011;10774;42.178;26.578;2022-09-02T03:39:46;11.15;;;7.43;;
21233;SDS011;10774;42.178;26.578;2022-09-02T03:42:11;8.82;;;7.45;;
21233;SDS011;10774;42.178;26.578;2022-09-02T03:44:37;12.77;;;7.28;;
21233;SDS011;10774;42.178;26.578;2022-09-02T03:47:05;10.30;;;6.50;;
21233;SDS011;10774;42.178;26.578;2022-09-02T03:49:32;13.52;;;7.18;;
21233;SDS011;10774;42.178;26.578;2022-09-02T03:51:58;10.85;;;6.55;;
21233;SDS011;10774;42.178;26.578;2022-09-02T03:54:24;15.63;;;6.80;;
21233;SDS011;10774;42.178;26.578;2022-09-02T03:56:50;11.02;;;7.15;;
21233;SDS011;10774;42.178;26.578;2022-09-02T03:59:16;10.65;;;6.50;;
21233;SDS011;10774;42.178;26.578;2022-09-02T04:01:41;9.75;;;7.22;;
21233;SDS011;10774;42.178;26.578;2022-09-02T04:04:07;12.98;;;7.18;;
21233;SDS011;10774;42.178;26.578;2022-09-02T04:06:33;11.05;;;7.78;;
21233;SDS011;10774;42.178;26.578;2022-09-02T04:08:58;10.27;;;7.55;;
21233;SDS011;10774;42.178;26.578;2022-09-02T04:11:24;8.32;;;6.72;;
21233;SDS011;10774;42.178;26.578;2022-09-02T04:13:50;8.85;;;6.80;;
21233;SDS011;10774;42.178;26.578;2022-09-02T04:16:21;13.95;;;6.97;;
21233;SDS011;10774;42.178;26.578;2022-09-02T04:18:54;11.57;;;6.65;;
21233;SDS011;10774;42.178;26.578;2022-09-02T04:21:21;10.98;;;6.05;;
21233;SDS011;10774;42.178;26.578;2022-09-02T04:23:47;13.13;;;6.35;;
21233;SDS011;10774;42.178;26.578;2022-09-02T04:26:15;9.25;;;5.85;;
21233;SDS011;10774;42.178;26.578;2022-09-02T04:28:42;13.55;;;6.28;;
21233;SDS011;10774;42.178;26.578;2022-09-02T04:31:08;10.45;;;6.03;;
21233;SDS011;10774;42.178;26.578;2022-09-02T04:33:36;11.55;;;6.25;;
21233;SDS011;10774;42.178;26.578;2022-09-02T04:36:05;11.45;;;6.65;;
21233;SDS011;10774;42.178;26.578;2022-09-02T04:38:32;8.93;;;6.07;;
21233;SDS011;10774;42.178;26.578;2022-09-02T04:40:58;9.60;;;5.55;;
21233;SDS011;10774;42.178;26.578;2022-09-02T04:43:24;13.88;;;6.60;;
21233;SDS011;10774;42.178;26.578;2022-09-02T04:45:49;10.57;;;6.07;;
21233;SDS011;10774;42.178;26.578;2022-09-02T04:48:15;10.43;;;6.10;;
21233;SDS011;10774;42.178;26.578;2022-09-02T04:50:42;10.38;;;6.80;;
21233;SDS011;10774;42.178;26.578;2022-09-02T04:53:09;11.07;;;6.10;;
21233;SDS011;10774;42.178;26.578;2022-09-02T04:55:37;11.93;;;6.88;;
21233;SDS011;10774;42.178;26.578;2022-09-02T04:58:04;10.68;;;6.55;;
21233;SDS011;10774;42.178;26.578;2022-09-02T05:00:29;8.75;;;5.90;;
21233;SDS011;10774;42.178;26.578;2022-09-02T05:02:55;12.98;;;5.72;;
21233;SDS011;10774;42.178;26.578;2022-09-02T05:05:21;11.52;;;6.13;;
21233;SDS011;10774;42.178;26.578;2022-09-02T05:07:46;11.05;;;6.53;;
21233;SDS011;10774;42.178;26.578;2022-09-02T05:10:12;10.77;;;5.85;;
21233;SDS011;10774;42.178;26.578;2022-09-02T05:12:39;6.70;;;5.45;;
21233;SDS011;10774;42.178;26.578;2022-09-02T05:15:06;8.15;;;5.00;;
21233;SDS011;10774;42.178;26.578;2022-09-02T05:17:33;10.65;;;5.47;;
21233;SDS011;10774;42.178;26.578;2022-09-02T05:20:00;7.22;;;4.85;;
21233;SDS011;10774;42.178;26.578;2022-09-02T05:22:26;7.13;;;4.85;;
21233;SDS011;10774;42.178;26.578;2022-09-02T05:24:53;9.30;;;4.75;;
21233;SDS011;10774;42.178;26.578;2022-09-02T05:27:19;6.95;;;4.22;;
21233;SDS011;10774;42.178;26.578;2022-09-02T05:29:45;9.35;;;4.57;;
21233;SDS011;10774;42.178;26.578;2022-09-02T05:32:11;10.25;;;4.90;;
21233;SDS011;10774;42.178;26.578;2022-09-02T05:34:36;7.45;;;4.60;;
21233;SDS011;10774;42.178;26.578;2022-09-02T05:37:02;10.90;;;4.75;;
21233;SDS011;10774;42.178;26.578;2022-09-02T05:39:29;5.80;;;4.15;;
21233;SDS011;10774;42.178;26.578;2022-09-02T05:41:54;8.10;;;3.85;;
21233;SDS011;10774;42.178;26.578;2022-09-02T05:44:20;9.50;;;4.43;;
21233;SDS011;10774;42.178;26.578;2022-09-02T05:46:45;7.93;;;3.92;;
21233;SDS011;10774;42.178;26.578;2022-09-02T05:49:11;8.00;;;4.47;;
21233;SDS011;10774;42.178;26.578;2022-09-02T05:54:21;11.45;;;4.47;;
21233;SDS011;10774;42.178;26.578;2022-09-02T05:56:50;7.38;;;4.30;;
21233;SDS011;10774;42.178;26.578;2022-09-02T05:59:17;8.00;;;4.38;;
21233;SDS011;10774;42.178;26.578;2022-09-02T06:01:45;5.93;;;4.90;;
21233;SDS011;10774;42.178;26.578;2022-09-02T06:04:10;6.43;;;4.40;;
21233;SDS011;10774;42.178;26.578;2022-09-02T06:06:36;6.32;;;3.90;;
21233;SDS011;10774;42.178;26.578;2022-09-02T06:09:03;6.22;;;4.75;;
21233;SDS011;10774;42.178;26.578;2022-09-02T06:11:32;8.82;;;4.30;;
21233;SDS011;10774;42.178;26.578;2022-09-02T06:13:58;8.13;;;3.80;;
21233;SDS011;10774;42.178;26.578;2022-09-02T06:16:23;8.25;;;3.65;;
21233;SDS011;10774;42.178;26.578;2022-09-02T06:18:50;7.97;;;4.15;;
21233;SDS011;10774;42.178;26.578;2022-09-02T06:21:15;6.43;;;3.75;;
21233;SDS011;10774;42.178;26.578;2022-09-02T06:23:41;6.43;;;3.58;;
21233;SDS011;10774;42.178;26.578;2022-09-02T06:26:09;7.13;;;4.30;;
21233;SDS011;10774;42.178;26.578;2022-09-02T06:28:35;5.80;;;3.25;;
21233;SDS011;10774;42.178;26.578;2022-09-02T06:31:06;6.00;;;3.42;;
21233;SDS011;10774;42.178;26.578;2022-09-02T06:33:34;8.57;;;3.63;;
21233;SDS011;10774;42.178;26.578;2022-09-02T06:35:59;9.43;;;3.35;;
21233;SDS011;10774;42.178;26.578;2022-09-02T06:38:24;7.07;;;3.33;;
21233;SDS011;10774;42.178;26.578;2022-09-02T06:40:51;8.25;;;3.63;;
21233;SDS011;10774;42.178;26.578;2022-09-02T06:43:18;10.25;;;3.47;;
21233;SDS011;10774;42.178;26.578;2022-09-02T06:45:44;9.32;;;3.72;;
21233;SDS011;10774;42.178;26.578;2022-09-02T06:48:09;5.75;;;3.95;;
21233;SDS011;10774;42.178;26.578;2022-09-02T06:50:40;6.72;;;3.97;;
21233;SDS011;10774;42.178;26.578;2022-09-02T06:53:07;6.03;;;3.80;;
21233;SDS011;10774;42.178;26.578;2022-09-02T06:55:34;5.97;;;3.80;;
21233;SDS011;10774;42.178;26.578;2022-09-02T06:58:01;5.75;;;3.63;;
21233;SDS011;10774;42.178;26.578;2022-09-02T07:00:27;8.68;;;4.03;;
21233;SDS011;10774;42.178;26.578;2022-09-02T07:02:53;5.80;;;3.67;;
21233;SDS011;10774;42.178;26.578;2022-09-02T07:08:04;9.18;;;3.75;;
21233;SDS011;10774;42.178;26.578;2022-09-02T07:10:29;6.45;;;3.85;;
21233;SDS011;10774;42.178;26.578;2022-09-02T07:12:55;10.23;;;4.03;;
21233;SDS011;10774;42.178;26.578;2022-09-02T07:15:21;5.93;;;3.53;;
21233;SDS011;10774;42.178;26.578;2022-09-02T07:17:47;6.90;;;4.13;;
21233;SDS011;10774;42.178;26.578;2022-09-02T07:20:13;7.72;;;3.72;;
21233;SDS011;10774;42.178;26.578;2022-09-02T07:22:40;8.85;;;3.55;;
21233;SDS011;10774;42.178;26.578;2022-09-02T07:25:05;9.80;;;4.10;;
21233;SDS011;10774;42.178;26.578;2022-09-02T07:27:33;12.25;;;4.18;;
21233;SDS011;10774;42.178;26.578;2022-09-02T07:29:59;5.93;;;3.70;;
21233;SDS011;10774;42.178;26.578;2022-09-02T07:32:24;9.07;;;3.58;;
21233;SDS011;10774;42.178;26.578;2022-09-02T07:34:50;8.25;;;4.00;;
21233;SDS011;10774;42.178;26.578;2022-09-02T07:37:15;7.35;;;3.95;;
21233;SDS011;10774;42.178;26.578;2022-09-02T07:39:41;11.10;;;4.07;;
21233;SDS011;10774;42.178;26.578;2022-09-02T07:42:08;7.28;;;3.53;;
21233;SDS011;10774;42.178;26.578;2022-09-02T07:44:33;9.25;;;4.15;;
21233;SDS011;10774;42.178;26.578;2022-09-02T07:46:59;9.15;;;3.65;;
21233;SDS011;10774;42.178;26.578;2022-09-02T07:49:24;9.27;;;4.22;;
21233;SDS011;10774;42.178;26.578;2022-09-02T07:51:50;8.45;;;3.75;;
21233;SDS011;10774;42.178;26.578;2022-09-02T07:54:18;7.88;;;3.60;;
21233;SDS011;10774;42.178;26.578;2022-09-02T07:56:46;10.90;;;4.07;;
21233;SDS011;10774;42.178;26.578;2022-09-02T07:59:13;7.85;;;4.00;;
21233;SDS011;10774;42.178;26.578;2022-09-02T08:01:40;10.07;;;3.30;;
21233;SDS011;10774;42.178;26.578;2022-09-02T08:04:07;7.70;;;3.75;;
21233;SDS011;10774;42.178;26.578;2022-09-02T08:06:33;11.32;;;4.10;;
21233;SDS011;10774;42.178;26.578;2022-09-02T08:09:00;8.25;;;3.88;;
21233;SDS011;10774;42.178;26.578;2022-09-02T08:11:26;7.07;;;3.97;;
21233;SDS011;10774;42.178;26.578;2022-09-02T08:13:52;13.23;;;3.78;;
21233;SDS011;10774;42.178;26.578;2022-09-02T08:16:18;8.77;;;3.67;;
21233;SDS011;10774;42.178;26.578;2022-09-02T08:18:44;9.65;;;4.57;;
21233;SDS011;10774;42.178;26.578;2022-09-02T08:21:09;10.63;;;4.10;;
21233;SDS011;10774;42.178;26.578;2022-09-02T08:23:35;14.40;;;4.50;;
21233;SDS011;10774;42.178;26.578;2022-09-02T08:26:00;12.98;;;4.03;;
21233;SDS011;10774;42.178;26.578;2022-09-02T08:28:26;7.30;;;3.97;;
21233;SDS011;10774;42.178;26.578;2022-09-02T08:30:52;14.13;;;4.32;;
21233;SDS011;10774;42.178;26.578;2022-09-02T08:33:19;7.50;;;3.70;;
21233;SDS011;10774;42.178;26.578;2022-09-02T08:35:45;11.30;;;4.88;;
21233;SDS011;10774;42.178;26.578;2022-09-02T08:38:12;13.27;;;4.60;;
21233;SDS011;10774;42.178;26.578;2022-09-02T08:40:38;11.70;;;4.50;;
21233;SDS011;10774;42.178;26.578;2022-09-02T08:45:44;12.73;;;4.65;;
21233;SDS011;10774;42.178;26.578;2022-09-02T08:50:38;9.35;;;3.83;;
21233;SDS011;10774;42.178;26.578;2022-09-02T08:53:29;9.63;;;4.15;;
21233;SDS011;10774;42.178;26.578;2022-09-02T08:56:00;7.63;;;4.07;;
21233;SDS011;10774;42.178;26.578;2022-09-02T08:58:35;13.15;;;4.50;;
21233;SDS011;10774;42.178;26.578;2022-09-02T09:03:36;9.02;;;3.78;;
21233;SDS011;10774;42.178;26.578;2022-09-02T09:08:45;8.15;;;3.50;;
21233;SDS011;10774;42.178;26.578;2022-09-02T09:11:20;5.45;;;3.58;;
21233;SDS011;10774;42.178;26.578;2022-09-02T09:16:55;9.02;;;3.53;;
21233;SDS011;10774;42.178;26.578;2022-09-02T09:22:13;7.65;;;3.72;;
21233;SDS011;10774;42.178;26.578;2022-09-02T09:24:42;9.00;;;3.88;;
21233;SDS011;10774;42.178;26.578;2022-09-02T09:27:13;7.28;;;3.40;;
21233;SDS011;10774;42.178;26.578;2022-09-02T09:29:40;11.00;;;4.15;;
21233;SDS011;10774;42.178;26.578;2022-09-02T09:32:26;10.93;;;3.70;;
21233;SDS011;10774;42.178;26.578;2022-09-02T09:42:45;10.75;;;3.80;;
21233;SDS011;10774;42.178;26.578;2022-09-02T09:45:16;7.75;;;3.42;;
21233;SDS011;10774;42.178;26.578;2022-09-02T09:47:45;6.13;;;3.67;;
21233;SDS011;10774;42.178;26.578;2022-09-02T09:52:40;14.18;;;4.13;;
21233;SDS011;10774;42.178;26.578;2022-09-02T09:55:19;12.85;;;4.00;;
21233;SDS011;10774;42.178;26.578;2022-09-02T09:57:46;11.45;;;3.70;;
21233;SDS011;10774;42.178;26.578;2022-09-02T10:00:34;8.48;;;3.90;;
21233;SDS011;10774;42.178;26.578;2022-09-02T10:03:03;8.00;;;3.80;;
21233;SDS011;10774;42.178;26.578;2022-09-02T10:05:34;9.57;;;3.80;;
21233;SDS011;10774;42.178;26.578;2022-09-02T10:08:02;9.20;;;3.40;;
21233;SDS011;10774;42.178;26.578;2022-09-02T10:10:30;9.07;;;3.70;;
21233;SDS011;10774;42.178;26.578;2022-09-02T10:12:58;15.00;;;4.47;;
21233;SDS011;10774;42.178;26.578;2022-09-02T10:15:45;12.45;;;3.40;;
21233;SDS011;10774;42.178;26.578;2022-09-02T10:37:24;6.10;;;3.63;;
21233;SDS011;10774;42.178;26.578;2022-09-02T10:56:44;7.15;;;3.28;;
21233;SDS011;10774;42.178;26.578;2022-09-02T11:02:09;13.75;;;4.38;;
21233;SDS011;10774;42.178;26.578;2022-09-02T11:07:14;11.75;;;4.90;;
21233;SDS011;10774;42.178;26.578;2022-09-02T11:10:06;8.40;;;4.78;;
21233;SDS011;10774;42.178;26.578;2022-09-02T11:17:45;11.63;;;6.55;;
21233;SDS011;10774;42.178;26.578;2022-09-02T11:20:21;12.90;;;5.68;;
21233;SDS011;10774;42.178;26.578;2022-09-02T11:23:00;13.05;;;5.05;;
21233;SDS011;10774;42.178;26.578;2022-09-02T11:25:38;11.73;;;5.88;;
21233;SDS011;10774;42.178;26.578;2022-09-02T11:30:50;7.28;;;5.13;;
21233;SDS011;10774;42.178;26.578;2022-09-02T11:33:25;7.40;;;4.30;;
21233;SDS011;10774;42.178;26.578;2022-09-02T11:35:56;10.82;;;4.50;;
21233;SDS011;10774;42.178;26.578;2022-09-02T11:38:33;9.98;;;4.55;;
21233;SDS011;10774;42.178;26.578;2022-09-02T11:41:20;9.20;;;4.07;;
21233;SDS011;10774;42.178;26.578;2022-09-02T11:43:59;9.75;;;4.43;;
21233;SDS011;10774;42.178;26.578;2022-09-02T11:49:30;10.68;;;4.20;;
21233;SDS011;10774;42.178;26.578;2022-09-02T11:55:16;9.00;;;4.38;;
21233;SDS011;10774;42.178;26.578;2022-09-02T11:57:52;7.55;;;4.28;;
21233;SDS011;10774;42.178;26.578;2022-09-02T12:00:29;6.97;;;3.85;;
21233;SDS011;10774;42.178;26.578;2022-09-02T12:08:55;7.43;;;3.28;;
21233;SDS011;10774;42.178;26.578;2022-09-02T12:11:03;3.72;;;3.08;;
21233;SDS011;10774;42.178;26.578;2022-09-02T12:13:32;5.30;;;2.95;;
21233;SDS011;10774;42.178;26.578;2022-09-02T12:21:17;6.85;;;3.40;;
21233;SDS011;10774;42.178;26.578;2022-09-02T12:26:15;6.85;;;3.67;;
21233;SDS011;10774;42.178;26.578;2022-09-02T12:28:42;7.63;;;4.38;;
21233;SDS011;10774;42.178;26.578;2022-09-02T12:31:14;5.78;;;3.90;;
21233;SDS011;10774;42.178;26.578;2022-09-02T12:33:59;7.40;;;4.10;;
21233;SDS011;10774;42.178;26.578;2022-09-02T12:50:24;6.88;;;3.80;;
21233;SDS011;10774;42.178;26.578;2022-09-02T12:53:06;9.52;;;4.47;;
21233;SDS011;10774;42.178;26.578;2022-09-02T12:55:38;6.82;;;3.83;;
21233;SDS011;10774;42.178;26.578;2022-09-02T12:58:08;6.35;;;3.45;;
21233;SDS011;10774;42.178;26.578;2022-09-02T13:00:38;8.10;;;3.80;;
21233;SDS011;10774;42.178;26.578;2022-09-02T13:03:31;8.87;;;3.70;;
21233;SDS011;10774;42.178;26.578;2022-09-02T13:06:08;5.90;;;3.80;;
21233;SDS011;10774;42.178;26.578;2022-09-02T13:08:52;6.40;;;3.40;;
21233;SDS011;10774;42.178;26.578;2022-09-02T13:25:16;12.20;;;4.85;;
21233;SDS011;10774;42.178;26.578;2022-09-02T13:28:05;11.50;;;4.70;;
21233;SDS011;10774;42.178;26.578;2022-09-02T13:33:17;12.85;;;6.45;;
21233;SDS011;10774;42.178;26.578;2022-09-02T13:35:43;10.93;;;7.05;;
21233;SDS011;10774;42.178;26.578;2022-09-02T13:38:10;11.13;;;4.85;;
21233;SDS011;10774;42.178;26.578;2022-09-02T13:40:37;13.48;;;4.20;;
21233;SDS011;10774;42.178;26.578;2022-09-02T13:43:14;6.70;;;3.70;;
21233;SDS011;10774;42.178;26.578;2022-09-02T13:45:41;8.70;;;3.60;;
21233;SDS011;10774;42.178;26.578;2022-09-02T13:48:12;6.63;;;3.42;;
21233;SDS011;10774;42.178;26.578;2022-09-02T13:50:41;6.85;;;3.25;;
21233;SDS011;10774;42.178;26.578;2022-09-02T13:53:09;6.82;;;3.33;;
21233;SDS011;10774;42.178;26.578;2022-09-02T13:55:48;8.50;;;3.30;;
21233;SDS011;10774;42.178;26.578;2022-09-02T13:58:21;6.03;;;3.53;;
21233;SDS011;10774;42.178;26.578;2022-09-02T14:01:26;7.18;;;3.40;;
21233;SDS011;10774;42.178;26.578;2022-09-02T14:03:54;6.35;;;3.40;;
21233;SDS011;10774;42.178;26.578;2022-09-02T14:06:25;7.60;;;3.13;;
21233;SDS011;10774;42.178;26.578;2022-09-02T14:08:55;9.40;;;3.70;;
21233;SDS011;10774;42.178;26.578;2022-09-02T14:11:23;6.65;;;3.47;;
21233;SDS011;10774;42.178;26.578;2022-09-02T14:13:50;10.07;;;3.30;;
21233;SDS011;10774;42.178;26.578;2022-09-02T14:16:30;6.28;;;3.35;;
21233;SDS011;10774;42.178;26.578;2022-09-02T14:21:48;9.77;;;3.13;;
21233;SDS011;10774;42.178;26.578;2022-09-02T14:24:19;5.95;;;2.90;;
21233;SDS011;10774;42.178;26.578;2022-09-02T14:26:47;9.25;;;3.25;;
21233;SDS011;10774;42.178;26.578;2022-09-02T14:29:16;7.25;;;3.30;;
21233;SDS011;10774;42.178;26.578;2022-09-02T14:31:44;9.38;;;3.75;;
21233;SDS011;10774;42.178;26.578;2022-09-02T14:36:57;9.05;;;3.80;;
21233;SDS011;10774;42.178;26.578;2022-09-02T14:39:23;10.63;;;4.32;;
21233;SDS011;10774;42.178;26.578;2022-09-02T14:41:49;8.52;;;3.63;;
21233;SDS011;10774;42.178;26.578;2022-09-02T14:44:27;8.10;;;3.30;;
21233;SDS011;10774;42.178;26.578;2022-09-02T14:47:02;6.28;;;3.03;;
21233;SDS011;10774;42.178;26.578;2022-09-02T14:49:34;4.47;;;3.00;;
21233;SDS011;10774;42.178;26.578;2022-09-02T14:52:24;6.72;;;3.50;;
21233;SDS011;10774;42.178;26.578;2022-09-02T14:54:54;7.20;;;3.67;;
21233;SDS011;10774;42.178;26.578;2022-09-02T14:57:31;6.35;;;3.65;;
21233;SDS011;10774;42.178;26.578;2022-09-02T15:00:11;6.35;;;3.17;;
21233;SDS011;10774;42.178;26.578;2022-09-02T15:02:40;4.95;;;3.38;;
21233;SDS011;10774;42.178;26.578;2022-09-02T15:05:08;5.63;;;2.72;;
21233;SDS011;10774;42.178;26.578;2022-09-02T15:07:38;6.30;;;3.08;;
21233;SDS011;10774;42.178;26.578;2022-09-02T15:10:04;4.22;;;2.30;;
21233;SDS011;10774;42.178;26.578;2022-09-02T15:12:32;6.18;;;2.95;;
21233;SDS011;10774;42.178;26.578;2022-09-02T15:15:03;7.43;;;2.95;;
21233;SDS011;10774;42.178;26.578;2022-09-02T15:17:29;6.93;;;3.28;;
21233;SDS011;10774;42.178;26.578;2022-09-02T15:19:55;9.82;;;3.63;;
21233;SDS011;10774;42.178;26.578;2022-09-02T15:22:21;7.95;;;4.22;;
21233;SDS011;10774;42.178;26.578;2022-09-02T15:24:46;9.02;;;4.63;;
21233;SDS011;10774;42.178;26.578;2022-09-02T15:27:13;9.05;;;4.30;;
21233;SDS011;10774;42.178;26.578;2022-09-02T15:29:39;7.97;;;3.10;;
21233;SDS011;10774;42.178;26.578;2022-09-02T15:32:05;6.50;;;3.47;;
21233;SDS011;10774;42.178;26.578;2022-09-02T15:34:31;5.72;;;2.70;;
21233;SDS011;10774;42.178;26.578;2022-09-02T15:36:56;5.85;;;3.08;;
21233;SDS011;10774;42.178;26.578;2022-09-02T15:39:22;5.63;;;3.20;;
21233;SDS011;10774;42.178;26.578;2022-09-02T15:41:48;4.20;;;3.00;;
21233;SDS011;10774;42.178;26.578;2022-09-02T15:44:14;8.18;;;4.50;;
21233;SDS011;10774;42.178;26.578;2022-09-02T15:46:40;7.43;;;3.28;;
21233;SDS011;10774;42.178;26.578;2022-09-02T15:49:08;10.45;;;3.58;;
21233;SDS011;10774;42.178;26.578;2022-09-02T15:51:36;7.10;;;3.35;;
21233;SDS011;10774;42.178;26.578;2022-09-02T15:54:05;5.97;;;3.65;;
21233;SDS011;10774;42.178;26.578;2022-09-02T15:56:33;6.70;;;3.55;;
21233;SDS011;10774;42.178;26.578;2022-09-02T15:59:01;7.00;;;3.55;;
21233;SDS011;10774;42.178;26.578;2022-09-02T16:01:32;7.03;;;3.92;;
21233;SDS011;10774;42.178;26.578;2022-09-02T16:03:59;6.80;;;3.13;;
21233;SDS011;10774;42.178;26.578;2022-09-02T16:06:28;7.20;;;3.97;;
21233;SDS011;10774;42.178;26.578;2022-09-02T16:08:54;8.23;;;4.00;;
21233;SDS011;10774;42.178;26.578;2022-09-02T16:11:20;6.75;;;4.75;;
21233;SDS011;10774;42.178;26.578;2022-09-02T16:13:46;36.92;;;19.58;;
21233;SDS011;10774;42.178;26.578;2022-09-02T16:16:12;36.63;;;20.58;;
21233;SDS011;10774;42.178;26.578;2022-09-02T16:18:40;18.40;;;12.52;;
21233;SDS011;10774;42.178;26.578;2022-09-02T16:21:06;14.80;;;9.00;;
21233;SDS011;10774;42.178;26.578;2022-09-02T16:23:34;8.95;;;4.28;;
21233;SDS011;10774;42.178;26.578;2022-09-02T16:28:48;8.15;;;4.55;;
21233;SDS011;10774;42.178;26.578;2022-09-02T16:31:16;9.07;;;4.72;;
21233;SDS011;10774;42.178;26.578;2022-09-02T16:33:43;9.13;;;3.97;;
21233;SDS011;10774;42.178;26.578;2022-09-02T16:36:20;7.80;;;4.18;;
21233;SDS011;10774;42.178;26.578;2022-09-02T16:38:46;12.30;;;4.40;;
21233;SDS011;10774;42.178;26.578;2022-09-02T16:43:52;9.65;;;4.43;;
21233;SDS011;10774;42.178;26.578;2022-09-02T16:46:18;6.88;;;4.38;;
21233;SDS011;10774;42.178;26.578;2022-09-02T16:48:44;10.32;;;4.50;;
21233;SDS011;10774;42.178;26.578;2022-09-02T16:51:09;4.50;;;2.17;;
21233;SDS011;10774;42.178;26.578;2022-09-02T16:53:35;6.38;;;2.40;;
21233;SDS011;10774;42.178;26.578;2022-09-02T16:56:01;3.63;;;1.90;;
21233;SDS011;10774;42.178;26.578;2022-09-02T16:58:28;2.88;;;1.80;;
21233;SDS011;10774;42.178;26.578;2022-09-02T17:00:54;4.50;;;2.05;;